Time;durP1;ratioP1;P1;durP2;ratioP2;P2;SDS_P1;SDS_P2;PMS_P1;PMS_P2;Temp;Humidity;BMP_temperature;BMP_pressure;BME280_temperature;BME280_humidity;BME280_pressure;Samples;Min_cycle;Max_cycle;Signal;HPM_P1;HPM_P2
2020/12/18 00:02:20;;;;;;;49.60;21.33;;;;;;;;;;5015619;28;20100;-80
2020/12/18 00:04:46;;;;;;;50.92;21.10;;;;;;;;;;5033217;28;20049;-80
2020/12/18 00:07:12;;;;;;;26.83;15.88;;;;;;;;;;5036152;28;20052;-80
2020/12/18 00:09:38;;;;;;;22.70;15.27;;;;;;;;;;5036420;28;20054;-80
2020/12/18 00:12:04;;;;;;;26.13;15.32;;;;;;;;;;5024946;28;20050;-79
2020/12/18 00:14:30;;;;;;;20.05;14.40;;;;;;;;;;5027614;28;20108;-79
2020/12/18 00:16:57;;;;;;;25.48;15.73;;;;;;;;;;5036052;28;20045;-79
2020/12/18 00:19:22;;;;;;;26.90;17.88;;;;;;;;;;5033880;28;20127;-79
2020/12/18 00:21:48;;;;;;;24.60;16.92;;;;;;;;;;5034457;28;20045;-79
2020/12/18 00:24:14;;;;;;;21.85;13.90;;;;;;;;;;5034048;28;20466;-79
2020/12/18 00:26:40;;;;;;;21.55;15.18;;;;;;;;;;5034210;28;20499;-80
2020/12/18 00:29:08;;;;;;;23.40;14.80;;;;;;;;;;5034680;28;20053;-79
2020/12/18 00:31:34;;;;;;;19.10;13.60;;;;;;;;;;5034260;28;20083;-80
2020/12/18 00:34:00;;;;;;;19.27;12.98;;;;;;;;;;5034100;28;20080;-79
2020/12/18 00:36:26;;;;;;;20.13;14.10;;;;;;;;;;5033391;28;20049;-80
2020/12/18 00:38:52;;;;;;;27.05;17.98;;;;;;;;;;5033695;28;20056;-80
2020/12/18 00:41:18;;;;;;;22.98;16.40;;;;;;;;;;5033042;28;20064;-80
2020/12/18 00:43:44;;;;;;;22.40;15.65;;;;;;;;;;5034256;28;20053;-79
2020/12/18 00:46:10;;;;;;;22.10;14.93;;;;;;;;;;5033605;28;20056;-80
2020/12/18 00:48:36;;;;;;;20.85;15.00;;;;;;;;;;5034554;28;20060;-80
2020/12/18 00:51:03;;;;;;;21.15;14.15;;;;;;;;;;5034021;28;20049;-80
2020/12/18 00:53:29;;;;;;;23.00;14.52;;;;;;;;;;5034060;28;20399;-79
2020/12/18 00:55:55;;;;;;;20.73;13.80;;;;;;;;;;5034093;28;20053;-79
2020/12/18 00:58:21;;;;;;;19.45;13.88;;;;;;;;;;5034327;28;20045;-80
2020/12/18 01:00:47;;;;;;;18.92;14.48;;;;;;;;;;5033932;28;20056;-80
2020/12/18 01:03:14;;;;;;;22.45;14.48;;;;;;;;;;5033163;28;20053;-80
2020/12/18 01:05:40;;;;;;;24.30;16.23;;;;;;;;;;5032799;28;20046;-80
2020/12/18 01:08:06;;;;;;;19.63;13.63;;;;;;;;;;5010347;28;20414;-79
2020/12/18 01:10:32;;;;;;;19.58;13.07;;;;;;;;;;5017239;28;20125;-80
2020/12/18 01:12:58;;;;;;;19.50;14.52;;;;;;;;;;5017211;28;20054;-80
2020/12/18 01:15:24;;;;;;;17.55;12.75;;;;;;;;;;5018075;28;20073;-80
2020/12/18 01:17:50;;;;;;;18.05;12.93;;;;;;;;;;5034252;28;20053;-80
2020/12/18 01:20:17;;;;;;;17.40;12.68;;;;;;;;;;5036615;28;20068;-80
2020/12/18 01:22:43;;;;;;;16.77;11.70;;;;;;;;;;5037112;28;20053;-80
2020/12/18 01:25:09;;;;;;;16.65;11.93;;;;;;;;;;5038098;28;20059;-80
2020/12/18 01:27:35;;;;;;;16.13;12.48;;;;;;;;;;5037344;28;20419;-80
2020/12/18 01:30:01;;;;;;;15.05;10.82;;;;;;;;;;5036739;28;20466;-80
2020/12/18 01:32:27;;;;;;;18.30;11.93;;;;;;;;;;5037089;28;20053;-80
2020/12/18 01:34:53;;;;;;;14.90;11.43;;;;;;;;;;5037321;28;20053;-80
2020/12/18 01:37:20;;;;;;;16.25;12.50;;;;;;;;;;5036436;28;20100;-80
2020/12/18 01:39:46;;;;;;;16.20;12.00;;;;;;;;;;5036390;28;20046;-80
2020/12/18 01:42:12;;;;;;;16.40;11.90;;;;;;;;;;5036414;28;20060;-80
2020/12/18 01:44:38;;;;;;;18.67;12.18;;;;;;;;;;5036622;28;20049;-80
2020/12/18 01:47:13;;;;;;;18.90;12.57;;;;;;;;;;5036485;28;20049;-80
2020/12/18 01:49:39;;;;;;;17.52;13.05;;;;;;;;;;5036650;28;20053;-81
2020/12/18 01:52:05;;;;;;;18.25;13.45;;;;;;;;;;5037050;28;20510;-81
2020/12/18 01:54:32;;;;;;;18.92;13.13;;;;;;;;;;5037437;28;20045;-80
2020/12/18 01:56:59;;;;;;;19.63;13.95;;;;;;;;;;5022840;28;20045;-80
2020/12/18 01:59:24;;;;;;;19.40;13.93;;;;;;;;;;5016436;28;20447;-80
2020/12/18 02:01:50;;;;;;;19.65;13.40;;;;;;;;;;5016331;28;20046;-80
2020/12/18 02:04:16;;;;;;;19.55;13.80;;;;;;;;;;5029531;28;20053;-80
2020/12/18 02:06:46;;;;;;;17.15;12.52;;;;;;;;;;5035884;28;20104;-80
2020/12/18 02:09:12;;;;;;;18.23;13.27;;;;;;;;;;5036211;28;20081;-80
2020/12/18 02:11:39;;;;;;;23.65;14.45;;;;;;;;;;5036589;28;20114;-80
2020/12/18 02:14:12;;;;;;;21.83;13.88;;;;;;;;;;5036734;28;20041;-80
2020/12/18 02:16:38;;;;;;;22.15;14.38;;;;;;;;;;5032813;28;20503;-79
2020/12/18 02:19:04;;;;;;;23.20;16.73;;;;;;;;;;5034202;28;20060;-79
2020/12/18 02:21:35;;;;;;;28.60;17.35;;;;;;;;;;5041357;28;20044;-79
2020/12/18 02:24:01;;;;;;;24.70;15.90;;;;;;;;;;5054666;28;20053;-79
2020/12/18 02:26:27;;;;;;;24.50;15.88;;;;;;;;;;5054175;28;20058;-79
2020/12/18 02:28:53;;;;;;;28.52;17.70;;;;;;;;;;5054116;28;20059;-79
2020/12/18 02:31:20;;;;;;;24.52;15.18;;;;;;;;;;5054535;28;20435;-80
2020/12/18 02:33:46;;;;;;;22.15;14.65;;;;;;;;;;5054641;28;20052;-79
2020/12/18 02:36:13;;;;;;;22.23;14.32;;;;;;;;;;5053916;28;20143;-79
2020/12/18 02:38:39;;;;;;;24.42;16.00;;;;;;;;;;5053762;28;20045;-79
2020/12/18 02:41:05;;;;;;;20.55;14.20;;;;;;;;;;5054160;28;20044;-79
2020/12/18 02:43:32;;;;;;;24.77;15.45;;;;;;;;;;5051649;28;20504;-79
2020/12/18 02:45:58;;;;;;;23.42;14.20;;;;;;;;;;5033701;28;20694;-79
2020/12/18 02:48:24;;;;;;;22.35;14.15;;;;;;;;;;5034062;28;20045;-79
2020/12/18 02:50:50;;;;;;;20.92;13.85;;;;;;;;;;5034174;28;20052;-79
2020/12/18 02:53:17;;;;;;;22.02;13.23;;;;;;;;;;5034921;28;20051;-79
2020/12/18 02:55:44;;;;;;;19.23;13.15;;;;;;;;;;5033711;28;20407;-79
2020/12/18 02:58:10;;;;;;;22.70;14.18;;;;;;;;;;5033684;28;20060;-79
2020/12/18 03:00:38;;;;;;;22.30;14.18;;;;;;;;;;5033973;28;20053;-78
2020/12/18 03:03:04;;;;;;;23.27;14.80;;;;;;;;;;5033475;28;20108;-79
2020/12/18 03:05:31;;;;;;;25.73;15.65;;;;;;;;;;5033133;28;20192;-80
2020/12/18 03:07:57;;;;;;;23.63;16.38;;;;;;;;;;5033577;28;20053;-79
2020/12/18 03:10:23;;;;;;;26.45;16.55;;;;;;;;;;5034057;28;20072;-79
2020/12/18 03:12:49;;;;;;;22.75;15.52;;;;;;;;;;5033237;28;20492;-79
2020/12/18 03:15:15;;;;;;;22.30;15.57;;;;;;;;;;5033560;28;20528;-79
2020/12/18 03:17:41;;;;;;;23.80;14.68;;;;;;;;;;5033375;28;20454;-79
2020/12/18 03:20:07;;;;;;;23.45;15.95;;;;;;;;;;5034188;28;20057;-79
2020/12/18 03:22:33;;;;;;;23.90;15.25;;;;;;;;;;5049036;28;20052;-79
2020/12/18 03:24:59;;;;;;;29.75;17.27;;;;;;;;;;5036224;28;20115;-79
2020/12/18 03:27:26;;;;;;;28.17;17.05;;;;;;;;;;5033118;28;20053;-79
2020/12/18 03:29:52;;;;;;;29.23;17.83;;;;;;;;;;5033414;28;20053;-79
2020/12/18 03:32:18;;;;;;;30.92;18.02;;;;;;;;;;5033626;28;20067;-79
2020/12/18 03:34:45;;;;;;;24.58;15.98;;;;;;;;;;5032918;28;20503;-79
2020/12/18 03:37:11;;;;;;;35.55;19.55;;;;;;;;;;5033814;28;20384;-78
2020/12/18 03:39:36;;;;;;;32.92;21.17;;;;;;;;;;5033694;28;20049;-79
2020/12/18 03:42:02;;;;;;;34.83;19.52;;;;;;;;;;5033208;28;20057;-79
2020/12/18 03:44:29;;;;;;;27.55;17.10;;;;;;;;;;5033583;28;20076;-79
2020/12/18 03:46:54;;;;;;;30.17;18.40;;;;;;;;;;5033468;28;20049;-78
2020/12/18 03:49:20;;;;;;;30.38;18.08;;;;;;;;;;5032773;28;20053;-78
2020/12/18 03:51:47;;;;;;;26.65;16.77;;;;;;;;;;5032420;28;20041;-78
2020/12/18 03:54:13;;;;;;;29.77;16.50;;;;;;;;;;5032307;28;20054;-78
2020/12/18 03:56:39;;;;;;;33.17;19.98;;;;;;;;;;5032508;28;20053;-78
2020/12/18 03:59:05;;;;;;;29.80;17.50;;;;;;;;;;5033189;28;20056;-78
2020/12/18 04:01:31;;;;;;;30.10;18.27;;;;;;;;;;5032044;28;20462;-78
2020/12/18 04:03:57;;;;;;;27.55;18.00;;;;;;;;;;5032019;28;20049;-78
2020/12/18 04:06:23;;;;;;;30.00;18.13;;;;;;;;;;5032601;28;20077;-78
2020/12/18 04:08:50;;;;;;;27.40;18.00;;;;;;;;;;5032336;28;20049;-78
2020/12/18 04:11:16;;;;;;;23.92;16.95;;;;;;;;;;5031941;28;20496;-78
2020/12/18 04:13:42;;;;;;;28.30;16.70;;;;;;;;;;5031941;28;20050;-78
2020/12/18 04:16:08;;;;;;;27.10;17.00;;;;;;;;;;5032386;28;20092;-78
2020/12/18 04:18:33;;;;;;;24.67;15.90;;;;;;;;;;5031978;28;20053;-78
2020/12/18 04:20:59;;;;;;;24.80;15.35;;;;;;;;;;5031343;28;20103;-78
2020/12/18 04:23:25;;;;;;;25.67;17.15;;;;;;;;;;5032171;28;20060;-80
2020/12/18 04:25:52;;;;;;;27.25;17.70;;;;;;;;;;5032053;28;20565;-78
2020/12/18 04:28:18;;;;;;;30.50;18.30;;;;;;;;;;5031666;28;20503;-78
2020/12/18 04:30:44;;;;;;;30.55;17.27;;;;;;;;;;5031874;28;20056;-78
2020/12/18 04:33:10;;;;;;;28.55;15.98;;;;;;;;;;5032183;28;20499;-78
2020/12/18 04:35:36;;;;;;;29.30;19.83;;;;;;;;;;5032492;28;20083;-78
2020/12/18 04:38:02;;;;;;;25.63;16.50;;;;;;;;;;5032357;28;20454;-78
2020/12/18 04:40:28;;;;;;;36.28;19.40;;;;;;;;;;5035046;28;20442;-79
2020/12/18 04:42:56;;;;;;;31.52;19.77;;;;;;;;;;5036898;28;20081;-79
2020/12/18 04:45:22;;;;;;;30.67;19.17;;;;;;;;;;5035174;28;20064;-79
2020/12/18 04:47:49;;;;;;;27.83;16.73;;;;;;;;;;5017498;28;20185;-78
2020/12/18 04:50:15;;;;;;;29.88;16.88;;;;;;;;;;5015881;28;20050;-78
2020/12/18 04:52:41;;;;;;;26.75;16.80;;;;;;;;;;5017405;28;20061;-79
2020/12/18 04:55:08;;;;;;;24.33;16.58;;;;;;;;;;5017391;28;20124;-79
2020/12/18 04:57:34;;;;;;;32.05;19.55;;;;;;;;;;5017166;28;20533;-79
2020/12/18 05:00:06;;;;;;;30.90;19.02;;;;;;;;;;5016896;28;20050;-80
2020/12/18 05:02:33;;;;;;;32.40;19.65;;;;;;;;;;5032710;28;20056;-78
2020/12/18 05:05:00;;;;;;;33.65;21.17;;;;;;;;;;5035997;28;20088;-78
2020/12/18 05:07:26;;;;;;;29.35;17.63;;;;;;;;;;5027879;28;20116;-79
2020/12/18 05:09:52;;;;;;;30.00;18.27;;;;;;;;;;5022442;28;20130;-78
2020/12/18 05:12:18;;;;;;;29.13;17.77;;;;;;;;;;5055764;28;20048;-78
2020/12/18 05:14:44;;;;;;;27.42;17.25;;;;;;;;;;5055971;28;20067;-79
2020/12/18 05:17:11;;;;;;;26.75;16.50;;;;;;;;;;5035901;28;20472;-78
2020/12/18 05:19:38;;;;;;;24.25;15.45;;;;;;;;;;5040974;28;20056;-78
2020/12/18 05:22:06;;;;;;;23.17;15.75;;;;;;;;;;5034967;28;20041;-78
2020/12/18 05:24:32;;;;;;;22.40;15.68;;;;;;;;;;5035921;28;20049;-78
2020/12/18 05:26:59;;;;;;;25.20;16.08;;;;;;;;;;5055913;28;20060;-80
2020/12/18 05:29:29;;;;;;;30.30;18.35;;;;;;;;;;5047260;28;20073;-81
2020/12/18 05:31:56;;;;;;;26.45;16.70;;;;;;;;;;5051652;28;20048;-80
2020/12/18 05:34:23;;;;;;;25.33;16.55;;;;;;;;;;5043611;28;20049;-81
2020/12/18 05:36:48;;;;;;;22.85;16.02;;;;;;;;;;5044967;28;20530;-80
2020/12/18 05:39:15;;;;;;;24.50;16.33;;;;;;;;;;5046719;28;20049;-80
2020/12/18 05:41:43;;;;;;;19.10;14.27;;;;;;;;;;5042095;28;20048;-80
2020/12/18 05:44:10;;;;;;;21.42;15.13;;;;;;;;;;5052276;28;20076;-80
2020/12/18 05:46:38;;;;;;;23.13;15.60;;;;;;;;;;5055398;28;20075;-79
2020/12/18 05:49:06;;;;;;;21.00;14.38;;;;;;;;;;5042457;28;20052;-80
2020/12/18 05:51:34;;;;;;;22.15;14.88;;;;;;;;;;5049090;28;20056;-80
2020/12/18 05:54:11;;;;;;;21.13;13.57;;;;;;;;;;5045644;28;20099;-80
2020/12/18 05:56:40;;;;;;;17.77;14.02;;;;;;;;;;5048106;28;20048;-79
2020/12/18 05:59:13;;;;;;;17.55;13.65;;;;;;;;;;5055467;28;20068;-80
2020/12/18 06:01:44;;;;;;;18.08;12.90;;;;;;;;;;5015397;28;20464;-80
2020/12/18 06:04:14;;;;;;;17.67;12.55;;;;;;;;;;5032532;28;20060;-80
2020/12/18 06:06:46;;;;;;;17.42;13.20;;;;;;;;;;5045115;28;20051;-80
2020/12/18 06:09:13;;;;;;;19.55;13.88;;;;;;;;;;5043500;28;20049;-80
2020/12/18 06:11:39;;;;;;;18.42;13.00;;;;;;;;;;5054808;28;20056;-80
2020/12/18 06:14:07;;;;;;;20.08;14.00;;;;;;;;;;5050114;28;20063;-80
2020/12/18 06:16:39;;;;;;;18.02;12.75;;;;;;;;;;5015338;28;20420;-80
2020/12/18 06:19:07;;;;;;;16.23;12.88;;;;;;;;;;5038532;28;20136;-80
2020/12/18 06:21:33;;;;;;;19.33;13.68;;;;;;;;;;5046092;28;20053;-79
2020/12/18 06:24:01;;;;;;;16.60;12.90;;;;;;;;;;5045261;28;20041;-79
2020/12/18 06:26:27;;;;;;;19.50;14.18;;;;;;;;;;5040504;28;20073;-79
2020/12/18 06:28:53;;;;;;;20.05;14.73;;;;;;;;;;5037561;28;20099;-79
2020/12/18 06:31:25;;;;;;;18.23;14.02;;;;;;;;;;5049888;28;20052;-79
2020/12/18 06:33:55;;;;;;;31.85;17.30;;;;;;;;;;5054392;28;20557;-80
2020/12/18 06:36:54;;;;;;;31.13;20.75;;;;;;;;;;5050121;28;20079;-79
2020/12/18 06:39:21;;;;;;;20.40;14.95;;;;;;;;;;5036812;28;20049;-80
2020/12/18 06:41:47;;;;;;;19.88;15.13;;;;;;;;;;5034554;28;20442;-80
2020/12/18 06:44:41;;;;;;;22.63;16.25;;;;;;;;;;5041163;28;20049;-81
2020/12/18 06:47:18;;;;;;;23.05;16.15;;;;;;;;;;5023254;28;20083;-81
2020/12/18 06:50:06;;;;;;;21.20;14.88;;;;;;;;;;5045365;28;20049;-80
2020/12/18 06:52:55;;;;;;;21.50;15.20;;;;;;;;;;5045515;28;20045;-81
2020/12/18 06:55:43;;;;;;;18.30;14.45;;;;;;;;;;5037038;28;21477;-81
2020/12/18 06:58:11;;;;;;;22.70;15.38;;;;;;;;;;5033203;28;20046;-81
2020/12/18 07:00:38;;;;;;;21.67;14.50;;;;;;;;;;5035564;28;20079;-80
2020/12/18 07:03:05;;;;;;;21.67;15.82;;;;;;;;;;5045199;28;20050;-80
2020/12/18 07:05:33;;;;;;;26.40;17.52;;;;;;;;;;5052288;28;20068;-81
2020/12/18 07:08:03;;;;;;;23.85;16.52;;;;;;;;;;5045868;28;20045;-80
2020/12/18 07:10:31;;;;;;;26.95;17.35;;;;;;;;;;5044222;28;20052;-80
2020/12/18 07:12:59;;;;;;;23.42;16.60;;;;;;;;;;5042299;28;20511;-80
2020/12/18 07:15:44;;;;;;;24.33;17.13;;;;;;;;;;5041907;28;20083;-80
2020/12/18 07:18:13;;;;;;;23.45;16.60;;;;;;;;;;5034784;28;20049;-80
2020/12/18 07:20:44;;;;;;;23.20;16.48;;;;;;;;;;5035124;28;20049;-80
2020/12/18 07:23:10;;;;;;;30.70;19.13;;;;;;;;;;5035945;28;20060;-80
2020/12/18 07:25:36;;;;;;;22.15;15.82;;;;;;;;;;5037976;28;20076;-80
2020/12/18 07:28:04;;;;;;;21.15;15.70;;;;;;;;;;5035197;28;20673;-80
2020/12/18 07:30:31;;;;;;;21.48;15.77;;;;;;;;;;5039455;28;20521;-80
2020/12/18 07:32:57;;;;;;;22.35;14.43;;;;;;;;;;5036321;28;20052;-80
2020/12/18 07:35:22;;;;;;;20.75;14.15;;;;;;;;;;5036487;28;20415;-80
2020/12/18 07:37:48;;;;;;;21.27;14.02;;;;;;;;;;5035323;28;20050;-80
2020/12/18 07:40:17;;;;;;;16.83;12.57;;;;;;;;;;5033702;28;20125;-80
2020/12/18 07:42:43;;;;;;;19.30;13.23;;;;;;;;;;5034277;28;20514;-80
2020/12/18 07:45:10;;;;;;;21.08;13.65;;;;;;;;;;5035235;28;20081;-81
2020/12/18 07:47:38;;;;;;;16.33;12.77;;;;;;;;;;5035176;28;20049;-80
2020/12/18 07:50:05;;;;;;;20.73;14.57;;;;;;;;;;5029463;28;20053;-80
2020/12/18 07:52:31;;;;;;;24.48;17.27;;;;;;;;;;5036513;28;20042;-80
2020/12/18 07:54:57;;;;;;;23.27;16.05;;;;;;;;;;5040253;28;20148;-81
2020/12/18 07:57:23;;;;;;;21.67;14.38;;;;;;;;;;5043042;28;20049;-80
2020/12/18 07:59:49;;;;;;;27.08;17.88;;;;;;;;;;5035569;28;20048;-81
2020/12/18 08:02:24;;;;;;;20.35;15.25;;;;;;;;;;5039128;28;20085;-81
2020/12/18 08:04:57;;;;;;;17.67;13.07;;;;;;;;;;5045956;28;20109;-79
2020/12/18 08:07:23;;;;;;;18.63;13.90;;;;;;;;;;5051422;28;20040;-82
2020/12/18 08:09:57;;;;;;;17.20;13.60;;;;;;;;;;5028742;28;20049;-81
2020/12/18 08:12:23;;;;;;;16.55;12.45;;;;;;;;;;5043840;28;20049;-81
2020/12/18 08:14:49;;;;;;;19.20;13.02;;;;;;;;;;5034294;28;20049;-81
2020/12/18 08:17:23;;;;;;;16.55;13.50;;;;;;;;;;5034124;28;20099;-81
2020/12/18 08:19:51;;;;;;;18.80;13.38;;;;;;;;;;5031240;28;20060;-80
2020/12/18 08:22:18;;;;;;;14.85;11.48;;;;;;;;;;5042299;28;20048;-81
2020/12/18 08:24:45;;;;;;;14.73;11.90;;;;;;;;;;5055123;28;20099;-81
2020/12/18 08:27:17;;;;;;;15.80;12.45;;;;;;;;;;5042118;28;20077;-80
2020/12/18 08:29:44;;;;;;;12.43;10.75;;;;;;;;;;5046979;28;20053;-79
2020/12/18 08:32:15;;;;;;;13.85;10.32;;;;;;;;;;5040589;28;20038;-80
2020/12/18 08:34:42;;;;;;;13.95;10.13;;;;;;;;;;5047872;28;20050;-80
2020/12/18 08:37:08;;;;;;;13.13;10.93;;;;;;;;;;5039634;28;20048;-81
2020/12/18 08:39:35;;;;;;;13.40;10.27;;;;;;;;;;5057042;23;20047;-84
2020/12/18 08:42:02;;;;;;;14.20;10.23;;;;;;;;;;4976621;28;20046;-86
2020/12/18 08:44:29;;;;;;;15.35;12.00;;;;;;;;;;4977893;28;20098;-84
2020/12/18 08:46:56;;;;;;;12.88;10.32;;;;;;;;;;4984134;22;20051;-85
2020/12/18 08:49:24;;;;;;;12.02;9.23;;;;;;;;;;4976178;28;20176;-85
2020/12/18 08:51:53;;;;;;;13.65;11.50;;;;;;;;;;4977207;28;20051;-85
2020/12/18 08:54:23;;;;;;;16.58;11.65;;;;;;;;;;4977120;28;20146;-85
2020/12/18 08:57:10;;;;;;;13.30;10.02;;;;;;;;;;4982593;28;20039;-86
2020/12/18 08:59:38;;;;;;;15.80;9.88;;;;;;;;;;4986018;28;20054;-86
2020/12/18 09:02:04;;;;;;;11.48;9.45;;;;;;;;;;4981084;28;20047;-86
2020/12/18 09:04:31;;;;;;;11.88;8.93;;;;;;;;;;4979097;28;20043;-85
2020/12/18 09:07:02;;;;;;;10.68;8.80;;;;;;;;;;4978588;28;20434;-86
2020/12/18 09:09:28;;;;;;;11.48;8.75;;;;;;;;;;4964736;28;20130;-86
2020/12/18 09:11:54;;;;;;;10.95;9.25;;;;;;;;;;4979053;28;20174;-84
2020/12/18 09:14:26;;;;;;;10.65;8.45;;;;;;;;;;4978399;28;20051;-85
2020/12/18 09:16:56;;;;;;;10.10;7.95;;;;;;;;;;4976835;28;20066;-86
2020/12/18 09:19:22;;;;;;;11.57;8.75;;;;;;;;;;4976165;28;20047;-85
2020/12/18 09:21:48;;;;;;;9.65;8.00;;;;;;;;;;4976558;28;20550;-85
2020/12/18 09:24:19;;;;;;;13.10;8.25;;;;;;;;;;4977584;28;20050;-84
2020/12/18 09:35:37;;;;;;;10.77;8.13;;;;;;;;;;5152007;23;20042;-85
2020/12/18 09:38:03;;;;;;;10.43;8.30;;;;;;;;;;4983197;28;20050;-87
2020/12/18 09:40:32;;;;;;;12.65;8.55;;;;;;;;;;4985829;28;20050;-86
2020/12/18 09:42:58;;;;;;;13.45;9.75;;;;;;;;;;5004037;28;20050;-86
2020/12/18 09:45:25;;;;;;;14.82;9.50;;;;;;;;;;5003001;28;20046;-87
2020/12/18 09:47:51;;;;;;;11.55;8.20;;;;;;;;;;4994212;28;20042;-86
2020/12/18 09:50:17;;;;;;;11.73;8.35;;;;;;;;;;5015140;28;20057;-86
2020/12/18 09:52:43;;;;;;;13.07;8.63;;;;;;;;;;4986251;28;20050;-88
2020/12/18 09:55:09;;;;;;;10.10;8.23;;;;;;;;;;4997765;28;20042;-87
2020/12/18 09:57:36;;;;;;;10.65;8.65;;;;;;;;;;5023315;28;20049;-87
2020/12/18 10:00:05;;;;;;;11.73;7.43;;;;;;;;;;5019351;28;20054;-85
2020/12/18 10:02:31;;;;;;;9.75;7.38;;;;;;;;;;5021834;28;20466;-85
2020/12/18 10:04:57;;;;;;;12.32;7.65;;;;;;;;;;4966517;28;20046;-85
2020/12/18 10:07:23;;;;;;;10.52;7.90;;;;;;;;;;4964371;28;20043;-85
2020/12/18 10:09:49;;;;;;;9.32;7.88;;;;;;;;;;4963569;28;20046;-85
2020/12/18 10:12:16;;;;;;;9.52;7.15;;;;;;;;;;4963766;28;20046;-85
2020/12/18 10:14:42;;;;;;;10.43;7.78;;;;;;;;;;4980751;28;20451;-85
2020/12/18 10:17:09;;;;;;;9.15;7.35;;;;;;;;;;4980789;28;20050;-85
2020/12/18 10:19:35;;;;;;;11.18;7.80;;;;;;;;;;4981664;28;20065;-85
2020/12/18 10:22:01;;;;;;;11.10;7.57;;;;;;;;;;4983403;28;20050;-85
2020/12/18 10:24:27;;;;;;;10.18;7.05;;;;;;;;;;4967495;28;20537;-85
2020/12/18 10:26:53;;;;;;;8.52;7.18;;;;;;;;;;4983290;28;20047;-87
2020/12/18 10:29:19;;;;;;;9.15;7.43;;;;;;;;;;4982103;28;20127;-87
2020/12/18 10:31:46;;;;;;;8.55;6.57;;;;;;;;;;4982824;28;20042;-85
2020/12/18 10:34:12;;;;;;;8.75;7.05;;;;;;;;;;4964780;28;20055;-87
2020/12/18 10:36:38;;;;;;;9.05;7.43;;;;;;;;;;4965061;28;20142;-86
2020/12/18 10:39:05;;;;;;;12.10;8.85;;;;;;;;;;4963184;28;20396;-85
2020/12/18 10:41:31;;;;;;;11.18;8.50;;;;;;;;;;4964424;28;20043;-85
2020/12/18 10:43:59;;;;;;;11.32;8.07;;;;;;;;;;4964121;28;20410;-84
2020/12/18 10:46:25;;;;;;;10.38;7.70;;;;;;;;;;4979982;28;20058;-85
2020/12/18 10:48:52;;;;;;;14.35;7.70;;;;;;;;;;4979401;28;20039;-85
2020/12/18 10:51:18;;;;;;;11.85;7.82;;;;;;;;;;4979540;28;20054;-84
2020/12/18 10:53:44;;;;;;;11.68;7.40;;;;;;;;;;4979192;28;20046;-85
2020/12/18 10:56:10;;;;;;;11.70;8.38;;;;;;;;;;4946532;28;20053;-85
2020/12/18 10:58:36;;;;;;;10.43;7.78;;;;;;;;;;4961724;28;20053;-85
2020/12/18 11:01:02;;;;;;;12.02;7.88;;;;;;;;;;4947986;28;20047;-85
2020/12/18 11:03:28;;;;;;;10.02;7.80;;;;;;;;;;4978510;28;20479;-86
2020/12/18 11:05:56;;;;;;;9.80;7.70;;;;;;;;;;4976334;28;20039;-85
2020/12/18 11:08:22;;;;;;;9.07;7.65;;;;;;;;;;4959418;28;20050;-85
2020/12/18 11:10:48;;;;;;;11.57;7.40;;;;;;;;;;4977876;28;20114;-87
2020/12/18 11:13:14;;;;;;;9.63;7.53;;;;;;;;;;4960884;28;20050;-84
2020/12/18 11:15:40;;;;;;;10.80;7.70;;;;;;;;;;4979550;28;20456;-84
2020/12/18 11:18:06;;;;;;;10.25;7.88;;;;;;;;;;4962088;28;20051;-84
2020/12/18 11:20:32;;;;;;;13.05;7.40;;;;;;;;;;4980005;28;20066;-85
2020/12/18 11:22:59;;;;;;;10.95;6.90;;;;;;;;;;4959788;28;20042;-84
2020/12/18 11:25:25;;;;;;;9.68;7.15;;;;;;;;;;4960854;28;20043;-84
2020/12/18 11:27:51;;;;;;;8.35;6.90;;;;;;;;;;4960260;28;20517;-84
2020/12/18 11:30:17;;;;;;;9.48;7.15;;;;;;;;;;4959587;28;20395;-84
2020/12/18 11:32:43;;;;;;;11.98;7.38;;;;;;;;;;4976948;28;20132;-84
2020/12/18 11:35:08;;;;;;;10.55;7.65;;;;;;;;;;4977857;28;20106;-84
2020/12/18 11:37:35;;;;;;;12.50;8.05;;;;;;;;;;4977046;28;20054;-83
2020/12/18 11:40:01;;;;;;;8.70;7.63;;;;;;;;;;4959970;28;20047;-85
2020/12/18 11:42:28;;;;;;;9.85;8.07;;;;;;;;;;4977887;28;20054;-86
2020/12/18 11:44:54;;;;;;;11.50;7.35;;;;;;;;;;4963230;28;20070;-85
2020/12/18 11:47:20;;;;;;;13.50;8.50;;;;;;;;;;4976615;28;20510;-86
2020/12/18 11:49:46;;;;;;;11.90;8.25;;;;;;;;;;4958972;28;20137;-86
2020/12/18 11:52:12;;;;;;;12.02;8.38;;;;;;;;;;4976721;28;20043;-87
2020/12/18 11:54:38;;;;;;;11.25;9.23;;;;;;;;;;4958976;28;20055;-86
2020/12/18 11:57:06;;;;;;;13.07;8.93;;;;;;;;;;4959363;28;20046;-86
2020/12/18 11:59:32;;;;;;;12.30;9.32;;;;;;;;;;4958853;28;20079;-86
2020/12/18 12:01:58;;;;;;;11.73;9.05;;;;;;;;;;4959373;28;20045;-86
2020/12/18 12:04:24;;;;;;;13.88;9.63;;;;;;;;;;4958519;28;20054;-86
2020/12/18 12:06:50;;;;;;;13.13;9.00;;;;;;;;;;4976178;28;20109;-86
2020/12/18 12:09:16;;;;;;;11.80;8.90;;;;;;;;;;4943192;28;20046;-87
2020/12/18 12:11:42;;;;;;;9.77;5.82;;;;;;;;;;4959639;28;20050;-87
2020/12/18 12:14:09;;;;;;;7.63;5.40;;;;;;;;;;4958483;28;20110;-87
2020/12/18 12:16:36;;;;;;;8.35;5.35;;;;;;;;;;4975936;28;20077;-86
2020/12/18 12:19:03;;;;;;;8.15;6.00;;;;;;;;;;4976118;28;20061;-86
2020/12/18 12:21:33;;;;;;;7.72;5.70;;;;;;;;;;4974998;28;20079;-86
2020/12/18 12:23:59;;;;;;;8.60;6.05;;;;;;;;;;4976154;28;20075;-86
2020/12/18 12:26:25;;;;;;;9.60;7.53;;;;;;;;;;4976142;28;20058;-86
2020/12/18 12:28:51;;;;;;;12.23;8.38;;;;;;;;;;4976288;28;20062;-85
2020/12/18 12:31:18;;;;;;;17.20;10.65;;;;;;;;;;4958858;28;20042;-86
2020/12/18 12:33:44;;;;;;;21.77;14.35;;;;;;;;;;4958517;28;20057;-86
2020/12/18 12:36:11;;;;;;;26.40;13.38;;;;;;;;;;4959310;28;20062;-86
2020/12/18 12:38:37;;;;;;;48.85;27.25;;;;;;;;;;4943326;28;20078;-86
2020/12/18 12:41:03;;;;;;;66.97;28.25;;;;;;;;;;4958408;28;20097;-86
2020/12/18 12:43:29;;;;;;;63.88;29.52;;;;;;;;;;4959602;28;20047;-87
2020/12/18 12:45:55;;;;;;;31.75;20.88;;;;;;;;;;4957926;28;20479;-87
2020/12/18 12:48:22;;;;;;;22.25;15.35;;;;;;;;;;4943284;28;20487;-87
2020/12/18 12:50:49;;;;;;;15.57;12.10;;;;;;;;;;4974185;28;20059;-86
2020/12/18 12:53:15;;;;;;;16.88;11.77;;;;;;;;;;4958421;28;20091;-87
2020/12/18 12:55:41;;;;;;;20.63;10.40;;;;;;;;;;4942770;28;20050;-87
2020/12/18 12:58:07;;;;;;;11.15;8.85;;;;;;;;;;4959098;28;20043;-87
2020/12/18 13:00:33;;;;;;;12.95;9.75;;;;;;;;;;4976517;28;20046;-87
2020/12/18 13:02:59;;;;;;;17.65;10.20;;;;;;;;;;4961932;28;20043;-87
2020/12/18 13:05:26;;;;;;;13.00;9.85;;;;;;;;;;4961217;28;20058;-85
2020/12/18 13:07:54;;;;;;;11.32;9.13;;;;;;;;;;4961610;28;20478;-85
2020/12/18 13:10:20;;;;;;;12.52;10.00;;;;;;;;;;4962806;28;20047;-84
2020/12/18 13:12:46;;;;;;;16.50;9.90;;;;;;;;;;4979998;28;20046;-84
2020/12/18 13:15:12;;;;;;;13.93;10.27;;;;;;;;;;4963653;28;20097;-84
2020/12/18 13:17:38;;;;;;;15.95;10.00;;;;;;;;;;4978578;28;20058;-84
2020/12/18 13:20:04;;;;;;;14.25;9.98;;;;;;;;;;4980243;28;20046;-84
2020/12/18 13:22:31;;;;;;;14.93;10.25;;;;;;;;;;4963407;28;20443;-84
2020/12/18 13:24:57;;;;;;;17.40;10.68;;;;;;;;;;4962715;28;20047;-84
2020/12/18 13:27:23;;;;;;;12.75;10.00;;;;;;;;;;4962820;28;20117;-84
2020/12/18 13:29:49;;;;;;;13.68;9.95;;;;;;;;;;4947215;28;20483;-84
2020/12/18 13:32:15;;;;;;;12.93;9.70;;;;;;;;;;4979815;28;20504;-84
2020/12/18 13:34:41;;;;;;;16.23;10.27;;;;;;;;;;4979627;28;20046;-84
2020/12/18 13:37:07;;;;;;;12.10;10.10;;;;;;;;;;4980318;28;20077;-84
2020/12/18 13:39:34;;;;;;;13.88;10.68;;;;;;;;;;4979953;28;20472;-84
2020/12/18 13:42:00;;;;;;;12.35;9.23;;;;;;;;;;4963218;28;20168;-84
2020/12/18 13:44:27;;;;;;;13.52;10.30;;;;;;;;;;4979804;28;20050;-84
2020/12/18 13:46:53;;;;;;;12.45;9.95;;;;;;;;;;4979372;28;20479;-84
2020/12/18 13:49:19;;;;;;;19.83;10.30;;;;;;;;;;4979103;28;20047;-84
2020/12/18 13:51:47;;;;;;;17.17;10.32;;;;;;;;;;4961422;28;20050;-84
2020/12/18 13:54:13;;;;;;;12.38;9.90;;;;;;;;;;4979042;28;20050;-84
2020/12/18 13:56:44;;;;;;;13.80;9.60;;;;;;;;;;4979466;28;20039;-84
2020/12/18 13:59:10;;;;;;;16.38;9.80;;;;;;;;;;4979818;28;20212;-84
2020/12/18 14:01:38;;;;;;;12.52;9.88;;;;;;;;;;4979593;28;20046;-83
2020/12/18 14:04:05;;;;;;;12.95;9.40;;;;;;;;;;4979366;28;20042;-83
2020/12/18 14:06:31;;;;;;;16.40;9.88;;;;;;;;;;4978779;28;20054;-83
2020/12/18 14:08:57;;;;;;;12.88;9.88;;;;;;;;;;5000192;28;20145;-83
2020/12/18 14:11:23;;;;;;;11.98;9.63;;;;;;;;;;4999183;28;20070;-84
2020/12/18 14:13:50;;;;;;;13.50;10.82;;;;;;;;;;4998747;28;20083;-83
2020/12/18 14:16:15;;;;;;;15.38;10.15;;;;;;;;;;4999358;28;20042;-84
2020/12/18 14:18:42;;;;;;;14.40;10.95;;;;;;;;;;5000149;28;20069;-83
2020/12/18 14:21:08;;;;;;;14.15;12.05;;;;;;;;;;5001858;28;20042;-83
2020/12/18 14:23:35;;;;;;;14.07;11.35;;;;;;;;;;4997958;28;20137;-83
2020/12/18 14:26:01;;;;;;;16.15;11.50;;;;;;;;;;4998297;28;20042;-83
2020/12/18 14:28:27;;;;;;;12.93;10.80;;;;;;;;;;4997916;28;20390;-84
2020/12/18 14:30:54;;;;;;;18.10;10.18;;;;;;;;;;4997724;28;20054;-84